Terminal Aerodrome Forecast
Issued by NWS Jackson, KY

Home | Current Version | Previous Version | Text Only | Print | Product List | Glossary On
Versions: 1 2 3 4 5 6 7 8 9 10 11 12 13 14 15
000
FTUS43 KJKL 200800 AAA
TAFLOZ
TAF AMD
KLOZ 200802Z 2008/2106 03004KT P6SM VCSH BKN070 BKN090 OVC110
     FM201800 31007KT P6SM BKN040=

USA.gov is the U.S. government's official web portal to all federal, state and local government web resources and services.